Kofu, Japan
Current Conditions -  °F | °C
As of 12:58 AM on Thursday 23 Oct 2014 (Local Time) from RJTY Reporting Station
Overcast Overcast  
Wind Chill: 55°   Ceiling: 600
Heat Index: 55°   Visibility: 10mi
Dew Point: 54°   Wind: 7mph
Humidity: 99%   Direction: 360°N
Pressure: 30.04"   Gusts: NA
Location:  35.66°N, 138.57°E
Report Text: RJTY 221558Z AUTO 36006KT 10SM BKN006 OVC012 13/12 A3004 RMK AO2 RAE1541DZB1541E1551 CIG 006V012 BKN V SCT SLP176 P0002 T01250124
Loading
Personal Weather Stations






























Interactive Weather Map
Tropical Storm Tracking
New forecast layout! Learn more

10-Day Weather Forecast

Advertisements
Track Severe Weather on mobile